Boonsboro, MD (21713)

9:50 PM EST on February 11, 2016 (GMT -0500)
Boonsboro Weather Station | | Change Station
CLOSE
Current Station
Personal Weather Station
Location: Boonsboro, MD
Elevation: 520 ft
Nearby Weather Stations

Elev 520 ft 39.51 °N, 77.65 °W | Updated 14 seconds ago

Partly Cloudy
Partly Cloudy
16.7 °F
Feels Like 12 °F
N
3.2
Wind Variable Wind from NW

Today
High -- | Low -- °F
--% Chance of Precip.
Yesterday
High -- | Low -- °F
Precip. -- in
Pressure 30.32 in
Visibility 10.0 miles
Clouds Mostly Cloudy 5500 ft
Windchill 12 °F
Dew Point 3 °F
Humidity 54%
Rainfall 0.00 in
Snow Depth Not available.
7:08 AM 5:42 PM
Waxing Crescent, 16% visible
METAR KHGR 120153Z 27011KT 10SM BKN055 M07/M18 A3025 RMK AO2 SLP265 T10721178
Pressure 30.32 in
Visibility 10.0 miles
Clouds Mostly Cloudy 5500 ft
Windchill 12 °F
Dew Point 3 °F
Humidity 54%
Rainfall 0.00 in
Snow Depth Not available.
7:08 AM 5:42 PM
Waxing Crescent, 16% visible
METAR KHGR 120153Z 27011KT 10SM BKN055 M07/M18 A3025 RMK AO2 SLP265 T10721178

10-Day Weather Forecast

Almanac

Astronomy

Feb. 11, 2016 Rise Set
Actual Time
Civil Twilight
Nautical Twilight
Astronomical Twilight
Moon
Length of Visible Light
Length of Day
Tomorrow will be .
, % of the Moon is Illuminated

Today's Extremes

State Highs State Lows

Community

WunderPhotos

Upload Photos

1,892,226 photos uploaded!

WunderBlog® & News

Nearby

Air Quality

  Air Quality AQ Index Pollutant
Not available.

Snow Depth

Station Depth Elevation

Earthquake Activity

City Distance Mag. Time & Date
Minimum magnitude displayed is 2.5.

Coastal Water Temperatures

Place Temperature

Stations

Nearby Weather Stations

Station Location Temp. Windchill Dew Point Humidity Wind Precip. Elev Updated Type
                   

Watches & Warnings

There are currently no watches in effect.